sensor_id;sensor_type;location;lat;lon;timestamp;pressure;altitude;pressure_sealevel;temperature;humidity
75852;BME280;64500;52.632;20.656;2022-10-22T08:40:05;100076.00;;;11.87;67.76
75852;BME280;64500;52.632;20.656;2022-10-22T08:42:47;100074.54;;;11.61;68.09
75852;BME280;64500;52.632;20.656;2022-10-22T08:45:34;100065.14;;;11.34;68.45
75852;BME280;64500;52.632;20.656;2022-10-22T08:48:17;100072.24;;;11.11;68.94
75852;BME280;64500;52.632;20.656;2022-10-22T08:54:25;100065.59;;;10.74;69.64
75852;BME280;64500;52.632;20.656;2022-10-22T09:00:04;100072.98;;;10.64;70.17
75852;BME280;64500;52.632;20.656;2022-10-22T09:05:45;100069.16;;;10.55;70.68
75852;BME280;64500;52.632;20.656;2022-10-22T09:08:28;100076.05;;;10.56;71.32
75852;BME280;64500;52.632;20.656;2022-10-22T09:11:46;100080.23;;;10.52;71.37
75852;BME280;64500;52.632;20.656;2022-10-22T09:13:47;100082.07;;;10.49;71.72
75852;BME280;64500;52.632;20.656;2022-10-22T09:22:33;100086.81;;;10.37;71.93
75852;BME280;64500;52.632;20.656;2022-10-22T09:27:48;100087.52;;;10.37;72.28
75852;BME280;64500;52.632;20.656;2022-10-22T09:30:43;100083.41;;;10.38;72.45
75852;BME280;64500;52.632;20.656;2022-10-22T09:33:25;100082.23;;;10.37;72.31
75852;BME280;64500;52.632;20.656;2022-10-22T09:36:03;100083.90;;;10.34;72.54
75852;BME280;64500;52.632;20.656;2022-10-22T09:38:39;100078.80;;;10.33;72.50
75852;BME280;64500;52.632;20.656;2022-10-22T09:41:05;100081.48;;;10.38;72.68
75852;BME280;64500;52.632;20.656;2022-10-22T09:43:33;100079.39;;;10.37;72.89
75852;BME280;64500;52.632;20.656;2022-10-22T09:49:23;100075.06;;;10.47;73.25
75852;BME280;64500;52.632;20.656;2022-10-22T09:51:55;100073.81;;;10.77;74.00
75852;BME280;64500;52.632;20.656;2022-10-22T09:56:54;100082.67;;;11.12;72.90
75852;BME280;64500;52.632;20.656;2022-10-22T09:59:28;100071.09;;;11.20;72.83
75852;BME280;64500;52.632;20.656;2022-10-22T10:02:00;100069.80;;;11.27;72.57
75852;BME280;64500;52.632;20.656;2022-10-22T10:04:33;100071.14;;;11.29;72.27
75852;BME280;64500;52.632;20.656;2022-10-22T10:07:00;100070.79;;;11.29;72.08
75852;BME280;64500;52.632;20.656;2022-10-22T10:09:29;100071.86;;;11.29;72.13
75852;BME280;64500;52.632;20.656;2022-10-22T10:12:36;100071.84;;;11.29;72.04
75852;BME280;64500;52.632;20.656;2022-10-22T10:20:47;100084.21;;;11.36;72.12
75852;BME280;64500;52.632;20.656;2022-10-22T10:29:04;100090.81;;;11.35;72.02
75852;BME280;64500;52.632;20.656;2022-10-22T10:34:54;100091.23;;;11.43;72.11
75852;BME280;64500;52.632;20.656;2022-10-22T10:37:31;100079.91;;;11.43;72.04
75852;BME280;64500;52.632;20.656;2022-10-22T10:40:47;100073.91;;;11.43;71.96
75852;BME280;64500;52.632;20.656;2022-10-22T10:43:58;100073.94;;;11.41;72.03
75852;BME280;64500;52.632;20.656;2022-10-22T10:49:24;100075.77;;;11.45;72.25
75852;BME280;64500;52.632;20.656;2022-10-22T11:00:56;100094.54;;;11.50;72.10
75852;BME280;64500;52.632;20.656;2022-10-22T11:03:50;100097.02;;;11.50;72.17
75852;BME280;64500;52.632;20.656;2022-10-22T11:06:19;100093.63;;;11.51;72.08
75852;BME280;64500;52.632;20.656;2022-10-22T11:08:56;100087.03;;;11.52;72.23
75852;BME280;64500;52.632;20.656;2022-10-22T11:11:39;100077.91;;;11.55;72.20
75852;BME280;64500;52.632;20.656;2022-10-22T11:14:18;100067.80;;;11.56;72.30
75852;BME280;64500;52.632;20.656;2022-10-22T11:16:55;100066.88;;;11.57;72.31
75852;BME280;64500;52.632;20.656;2022-10-22T11:19:31;100071.98;;;11.63;72.48
75852;BME280;64500;52.632;20.656;2022-10-22T11:22:17;100074.23;;;11.70;72.56
75852;BME280;64500;52.632;20.656;2022-10-22T11:25:02;100066.86;;;11.73;72.44
75852;BME280;64500;52.632;20.656;2022-10-22T11:27:53;100064.70;;;11.74;72.40
75852;BME280;64500;52.632;20.656;2022-10-22T11:30:24;100055.27;;;11.75;72.34
75852;BME280;64500;52.632;20.656;2022-10-22T11:32:57;100056.82;;;11.77;72.54
75852;BME280;64500;52.632;20.656;2022-10-22T11:35:34;100063.06;;;11.81;72.60
75852;BME280;64500;52.632;20.656;2022-10-22T11:38:03;100064.52;;;11.85;72.65
75852;BME280;64500;52.632;20.656;2022-10-22T11:40:36;100064.20;;;11.90;72.35
75852;BME280;64500;52.632;20.656;2022-10-22T11:43:09;100065.08;;;11.90;72.44
75852;BME280;64500;52.632;20.656;2022-10-22T11:45:40;100061.86;;;11.91;72.61
75852;BME280;64500;52.632;20.656;2022-10-22T11:48:15;100055.56;;;11.94;72.58
75852;BME280;64500;52.632;20.656;2022-10-22T11:50:58;100051.21;;;11.96;72.37
75852;BME280;64500;52.632;20.656;2022-10-22T11:53:37;100052.63;;;12.02;72.50
75852;BME280;64500;52.632;20.656;2022-10-22T11:58:40;100047.26;;;12.08;72.40
75852;BME280;64500;52.632;20.656;2022-10-22T12:03:51;100042.23;;;12.05;72.22
75852;BME280;64500;52.632;20.656;2022-10-22T12:06:22;100033.98;;;12.08;72.59
75852;BME280;64500;52.632;20.656;2022-10-22T12:08:55;100028.85;;;12.12;72.60
75852;BME280;64500;52.632;20.656;2022-10-22T12:11:46;100028.81;;;12.18;72.71
75852;BME280;64500;52.632;20.656;2022-10-22T12:14:25;100034.02;;;12.27;72.66
75852;BME280;64500;52.632;20.656;2022-10-22T12:20:06;100033.30;;;12.27;72.23
75852;BME280;64500;52.632;20.656;2022-10-22T12:22:32;100035.52;;;12.25;72.05
75852;BME280;64500;52.632;20.656;2022-10-22T12:25:15;100037.09;;;12.25;72.25
75852;BME280;64500;52.632;20.656;2022-10-22T12:27:43;100040.31;;;12.29;72.32
75852;BME280;64500;52.632;20.656;2022-10-22T12:30:17;100038.71;;;12.29;72.21
75852;BME280;64500;52.632;20.656;2022-10-22T12:32:44;100031.46;;;12.29;72.44
75852;BME280;64500;52.632;20.656;2022-10-22T12:35:17;100031.21;;;12.26;72.24
75852;BME280;64500;52.632;20.656;2022-10-22T12:37:51;100029.33;;;12.24;72.32
75852;BME280;64500;52.632;20.656;2022-10-22T12:40:25;100032.77;;;12.26;72.24
75852;BME280;64500;52.632;20.656;2022-10-22T12:42:55;100027.61;;;12.27;72.30
75852;BME280;64500;52.632;20.656;2022-10-22T12:45:30;100034.17;;;12.32;72.48
75852;BME280;64500;52.632;20.656;2022-10-22T12:48:01;100040.23;;;12.36;72.26
75852;BME280;64500;52.632;20.656;2022-10-22T12:50:57;100042.75;;;12.35;72.19
75852;BME280;64500;52.632;20.656;2022-10-22T12:53:36;100043.57;;;12.36;72.30
75852;BME280;64500;52.632;20.656;2022-10-22T12:56:09;100046.98;;;12.40;72.41
75852;BME280;64500;52.632;20.656;2022-10-22T12:58:42;100048.39;;;12.45;72.51
75852;BME280;64500;52.632;20.656;2022-10-22T13:01:11;100045.20;;;12.50;72.32
75852;BME280;64500;52.632;20.656;2022-10-22T13:03:44;100043.83;;;12.53;72.23
75852;BME280;64500;52.632;20.656;2022-10-22T13:11:20;100045.79;;;12.53;72.17
75852;BME280;64500;52.632;20.656;2022-10-22T13:13:47;100041.80;;;12.55;72.08
75852;BME280;64500;52.632;20.656;2022-10-22T13:16:24;100043.52;;;12.57;71.89
75852;BME280;64500;52.632;20.656;2022-10-22T13:18:52;100048.52;;;12.56;71.74
75852;BME280;64500;52.632;20.656;2022-10-22T13:21:27;100055.88;;;12.54;71.69
75852;BME280;64500;52.632;20.656;2022-10-22T13:24:00;100061.60;;;12.53;71.75
75852;BME280;64500;52.632;20.656;2022-10-22T13:26:35;100064.36;;;12.54;71.97
75852;BME280;64500;52.632;20.656;2022-10-22T13:29:09;100066.54;;;12.58;72.12
75852;BME280;64500;52.632;20.656;2022-10-22T13:31:44;100059.73;;;12.60;71.95
75852;BME280;64500;52.632;20.656;2022-10-22T13:34:16;100057.80;;;12.59;72.00
75852;BME280;64500;52.632;20.656;2022-10-22T13:36:43;100059.69;;;12.60;72.07
75852;BME280;64500;52.632;20.656;2022-10-22T13:39:19;100052.38;;;12.61;72.03
75852;BME280;64500;52.632;20.656;2022-10-22T13:41:46;100050.98;;;12.66;72.21
75852;BME280;64500;52.632;20.656;2022-10-22T13:44:19;100046.15;;;12.72;72.40
75852;BME280;64500;52.632;20.656;2022-10-22T13:46:48;100044.27;;;12.75;72.15
75852;BME280;64500;52.632;20.656;2022-10-22T13:49:18;100046.98;;;12.74;72.17
75852;BME280;64500;52.632;20.656;2022-10-22T13:51:46;100047.18;;;12.72;72.02
75852;BME280;64500;52.632;20.656;2022-10-22T13:54:15;100050.38;;;12.73;72.16
75852;BME280;64500;52.632;20.656;2022-10-22T13:56:44;100048.39;;;12.74;72.08
75852;BME280;64500;52.632;20.656;2022-10-22T13:59:11;100048.15;;;12.75;72.09
75852;BME280;64500;52.632;20.656;2022-10-22T14:01:38;100045.79;;;12.77;72.01
75852;BME280;64500;52.632;20.656;2022-10-22T14:04:06;100045.23;;;12.77;71.80
75852;BME280;64500;52.632;20.656;2022-10-22T14:06:33;100045.55;;;12.74;71.91
75852;BME280;64500;52.632;20.656;2022-10-22T14:09:06;100050.53;;;12.73;72.09
75852;BME280;64500;52.632;20.656;2022-10-22T14:11:37;100051.80;;;12.77;72.13
75852;BME280;64500;52.632;20.656;2022-10-22T14:14:03;100049.71;;;12.80;72.20
75852;BME280;64500;52.632;20.656;2022-10-22T14:16:36;100045.56;;;12.82;72.02
75852;BME280;64500;52.632;20.656;2022-10-22T14:19:06;100043.61;;;12.82;72.07
75852;BME280;64500;52.632;20.656;2022-10-22T14:21:36;100044.41;;;12.80;72.00
75852;BME280;64500;52.632;20.656;2022-10-22T14:24:04;100041.13;;;12.78;71.93
75852;BME280;64500;52.632;20.656;2022-10-22T14:26:32;100036.56;;;12.77;71.94
75852;BME280;64500;52.632;20.656;2022-10-22T14:29:01;100036.33;;;12.79;72.05
75852;BME280;64500;52.632;20.656;2022-10-22T14:31:29;100039.30;;;12.79;71.95
75852;BME280;64500;52.632;20.656;2022-10-22T14:33:56;100041.98;;;12.79;71.88
75852;BME280;64500;52.632;20.656;2022-10-22T14:36:22;100036.96;;;12.76;71.85
75852;BME280;64500;52.632;20.656;2022-10-22T14:38:49;100036.39;;;12.72;71.84
75852;BME280;64500;52.632;20.656;2022-10-22T14:41:24;100037.30;;;12.72;72.11
75852;BME280;64500;52.632;20.656;2022-10-22T14:43:54;100036.75;;;12.72;72.06
75852;BME280;64500;52.632;20.656;2022-10-22T14:46:21;100035.29;;;12.73;72.15
75852;BME280;64500;52.632;20.656;2022-10-22T14:48:48;100032.60;;;12.74;72.27
75852;BME280;64500;52.632;20.656;2022-10-22T14:51:18;100030.48;;;12.74;72.34
75852;BME280;64500;52.632;20.656;2022-10-22T14:53:45;100032.27;;;12.73;72.15
75852;BME280;64500;52.632;20.656;2022-10-22T14:56:14;100033.21;;;12.72;72.10
75852;BME280;64500;52.632;20.656;2022-10-22T14:58:41;100035.60;;;12.74;72.29
75852;BME280;64500;52.632;20.656;2022-10-22T15:01:08;100035.69;;;12.77;72.17
75852;BME280;64500;52.632;20.656;2022-10-22T15:03:35;100036.42;;;12.76;72.19
75852;BME280;64500;52.632;20.656;2022-10-22T15:06:02;100033.63;;;12.75;72.31
75852;BME280;64500;52.632;20.656;2022-10-22T15:08:30;100033.70;;;12.73;72.13
75852;BME280;64500;52.632;20.656;2022-10-22T15:11:09;100037.77;;;12.73;72.23
75852;BME280;64500;52.632;20.656;2022-10-22T15:13:36;100040.44;;;12.73;72.11
75852;BME280;64500;52.632;20.656;2022-10-22T15:16:09;100039.67;;;12.74;72.30
75852;BME280;64500;52.632;20.656;2022-10-22T15:18:36;100040.59;;;12.74;72.21
75852;BME280;64500;52.632;20.656;2022-10-22T15:21:06;100043.28;;;12.73;72.31
75852;BME280;64500;52.632;20.656;2022-10-22T15:23:35;100042.06;;;12.72;72.29
75852;BME280;64500;52.632;20.656;2022-10-22T15:26:09;100043.70;;;12.71;72.36
75852;BME280;64500;52.632;20.656;2022-10-22T15:28:37;100045.27;;;12.72;72.37
75852;BME280;64500;52.632;20.656;2022-10-22T15:31:05;100048.58;;;12.73;72.41
75852;BME280;64500;52.632;20.656;2022-10-22T15:33:32;100044.10;;;12.74;72.46
75852;BME280;64500;52.632;20.656;2022-10-22T15:36:09;100042.05;;;12.72;72.36
75852;BME280;64500;52.632;20.656;2022-10-22T15:38:37;100041.29;;;12.69;72.37
75852;BME280;64500;52.632;20.656;2022-10-22T15:41:05;100043.55;;;12.70;72.33
75852;BME280;64500;52.632;20.656;2022-10-22T15:43:33;100046.18;;;12.71;72.45
75852;BME280;64500;52.632;20.656;2022-10-22T15:46:15;100043.15;;;12.72;72.34
75852;BME280;64500;52.632;20.656;2022-10-22T15:48:42;100046.20;;;12.71;72.20
75852;BME280;64500;52.632;20.656;2022-10-22T15:51:11;100049.39;;;12.66;72.27
75852;BME280;64500;52.632;20.656;2022-10-22T15:53:39;100053.02;;;12.63;72.33
75852;BME280;64500;52.632;20.656;2022-10-22T15:56:07;100053.17;;;12.64;72.40
75852;BME280;64500;52.632;20.656;2022-10-22T15:58:34;100051.71;;;12.66;72.53
75852;BME280;64500;52.632;20.656;2022-10-22T16:01:05;100054.52;;;12.67;72.58
75852;BME280;64500;52.632;20.656;2022-10-22T16:03:33;100055.33;;;12.69;72.61
75852;BME280;64500;52.632;20.656;2022-10-22T16:06:00;100053.42;;;12.67;72.78
75852;BME280;64500;52.632;20.656;2022-10-22T16:08:27;100058.97;;;12.66;72.79
75852;BME280;64500;52.632;20.656;2022-10-22T16:10:54;100057.85;;;12.68;72.75
75852;BME280;64500;52.632;20.656;2022-10-22T16:13:21;100059.38;;;12.69;72.79
75852;BME280;64500;52.632;20.656;2022-10-22T16:15:50;100064.45;;;12.71;72.69
75852;BME280;64500;52.632;20.656;2022-10-22T16:18:19;100063.52;;;12.72;72.63
75852;BME280;64500;52.632;20.656;2022-10-22T16:20:47;100065.20;;;12.70;72.64
75852;BME280;64500;52.632;20.656;2022-10-22T16:23:13;100063.65;;;12.69;72.78
75852;BME280;64500;52.632;20.656;2022-10-22T16:25:44;100060.94;;;12.70;72.85
75852;BME280;64500;52.632;20.656;2022-10-22T16:28:12;100065.11;;;12.72;72.80
75852;BME280;64500;52.632;20.656;2022-10-22T16:30:39;100069.36;;;12.73;72.74
75852;BME280;64500;52.632;20.656;2022-10-22T16:33:06;100068.88;;;12.71;72.64
75852;BME280;64500;52.632;20.656;2022-10-22T16:35:39;100074.50;;;12.68;72.67
75852;BME280;64500;52.632;20.656;2022-10-22T16:38:06;100076.71;;;12.66;72.79
75852;BME280;64500;52.632;20.656;2022-10-22T16:40:32;100076.73;;;12.64;72.73
75852;BME280;64500;52.632;20.656;2022-10-22T16:42:59;100080.11;;;12.65;72.88
75852;BME280;64500;52.632;20.656;2022-10-22T16:45:26;100083.70;;;12.69;72.94
75852;BME280;64500;52.632;20.656;2022-10-22T16:47:53;100084.48;;;12.67;72.85
75852;BME280;64500;52.632;20.656;2022-10-22T16:50:19;100088.72;;;12.68;73.01
75852;BME280;64500;52.632;20.656;2022-10-22T16:52:46;100087.98;;;12.68;72.99
75852;BME280;64500;52.632;20.656;2022-10-22T16:55:13;100089.41;;;12.68;72.92
75852;BME280;64500;52.632;20.656;2022-10-22T16:57:39;100088.70;;;12.68;72.95
75852;BME280;64500;52.632;20.656;2022-10-22T17:00:07;100091.52;;;12.68;73.00
75852;BME280;64500;52.632;20.656;2022-10-22T17:02:34;100092.23;;;12.68;73.13
75852;BME280;64500;52.632;20.656;2022-10-22T17:05:03;100090.26;;;12.69;73.11
75852;BME280;64500;52.632;20.656;2022-10-22T17:07:29;100089.42;;;12.68;73.16
75852;BME280;64500;52.632;20.656;2022-10-22T17:09:56;100092.52;;;12.70;73.12
75852;BME280;64500;52.632;20.656;2022-10-22T17:12:23;100095.80;;;12.72;73.18
75852;BME280;64500;52.632;20.656;2022-10-22T17:14:50;100097.34;;;12.73;73.23
75852;BME280;64500;52.632;20.656;2022-10-22T17:17:16;100098.18;;;12.75;73.17
75852;BME280;64500;52.632;20.656;2022-10-22T17:19:43;100095.55;;;12.74;73.08
75852;BME280;64500;52.632;20.656;2022-10-22T17:22:10;100093.79;;;12.74;73.02
75852;BME280;64500;52.632;20.656;2022-10-22T17:24:37;100097.05;;;12.72;73.13
75852;BME280;64500;52.632;20.656;2022-10-22T17:27:04;100094.70;;;12.73;73.22
75852;BME280;64500;52.632;20.656;2022-10-22T17:29:30;100093.77;;;12.74;73.18
75852;BME280;64500;52.632;20.656;2022-10-22T17:31:57;100092.52;;;12.75;73.23
75852;BME280;64500;52.632;20.656;2022-10-22T17:34:24;100088.30;;;12.78;73.30
75852;BME280;64500;52.632;20.656;2022-10-22T17:36:50;100088.58;;;12.80;73.27
75852;BME280;64500;52.632;20.656;2022-10-22T17:39:17;100088.48;;;12.78;73.29
75852;BME280;64500;52.632;20.656;2022-10-22T17:41:44;100087.45;;;12.77;73.27
75852;BME280;64500;52.632;20.656;2022-10-22T17:44:12;100089.01;;;12.78;73.26
75852;BME280;64500;52.632;20.656;2022-10-22T17:46:41;100087.30;;;12.81;73.39
75852;BME280;64500;52.632;20.656;2022-10-22T17:49:16;100090.42;;;12.82;73.35
75852;BME280;64500;52.632;20.656;2022-10-22T17:51:44;100091.85;;;12.83;73.30
75852;BME280;64500;52.632;20.656;2022-10-22T17:54:12;100092.06;;;12.82;73.41
75852;BME280;64500;52.632;20.656;2022-10-22T17:56:40;100089.25;;;12.81;73.47
75852;BME280;64500;52.632;20.656;2022-10-22T17:59:10;100091.38;;;12.81;73.28
75852;BME280;64500;52.632;20.656;2022-10-22T18:01:38;100095.23;;;12.82;73.36
75852;BME280;64500;52.632;20.656;2022-10-22T18:04:13;100095.50;;;12.84;73.43
75852;BME280;64500;52.632;20.656;2022-10-22T18:06:40;100097.41;;;12.86;73.36
75852;BME280;64500;52.632;20.656;2022-10-22T18:09:08;100096.38;;;12.85;73.49
75852;BME280;64500;52.632;20.656;2022-10-22T18:11:36;100101.19;;;12.84;73.36
75852;BME280;64500;52.632;20.656;2022-10-22T18:14:04;100101.99;;;12.81;73.31
75852;BME280;64500;52.632;20.656;2022-10-22T18:16:31;100103.05;;;12.82;73.50
75852;BME280;64500;52.632;20.656;2022-10-22T18:18:58;100098.52;;;12.84;73.54
75852;BME280;64500;52.632;20.656;2022-10-22T18:21:27;100101.39;;;12.88;73.48
75852;BME280;64500;52.632;20.656;2022-10-22T18:23:56;100101.89;;;12.89;73.46
75852;BME280;64500;52.632;20.656;2022-10-22T18:26:24;100102.65;;;12.88;73.56
75852;BME280;64500;52.632;20.656;2022-10-22T18:28:50;100102.00;;;12.86;73.55
75852;BME280;64500;52.632;20.656;2022-10-22T18:31:20;100104.15;;;12.85;73.56
75852;BME280;64500;52.632;20.656;2022-10-22T18:33:47;100099.89;;;12.86;73.63
75852;BME280;64500;52.632;20.656;2022-10-22T18:36:17;100102.19;;;12.86;73.64
75852;BME280;64500;52.632;20.656;2022-10-22T18:38:52;100103.32;;;12.84;73.66
75852;BME280;64500;52.632;20.656;2022-10-22T18:41:19;100105.12;;;12.84;73.76
75852;BME280;64500;52.632;20.656;2022-10-22T18:43:54;100107.56;;;12.84;73.85
75852;BME280;64500;52.632;20.656;2022-10-22T18:46:22;100103.98;;;12.85;73.80
75852;BME280;64500;52.632;20.656;2022-10-22T18:48:54;100106.16;;;12.89;73.87
75852;BME280;64500;52.632;20.656;2022-10-22T18:51:22;100112.45;;;12.91;73.81
75852;BME280;64500;52.632;20.656;2022-10-22T18:53:51;100112.56;;;12.93;73.79
75852;BME280;64500;52.632;20.656;2022-10-22T18:56:19;100112.38;;;12.93;73.96
75852;BME280;64500;52.632;20.656;2022-10-22T18:58:47;100112.05;;;12.92;73.91
75852;BME280;64500;52.632;20.656;2022-10-22T19:01:18;100112.40;;;12.92;73.94
75852;BME280;64500;52.632;20.656;2022-10-22T19:03:46;100113.42;;;12.93;73.97
75852;BME280;64500;52.632;20.656;2022-10-22T19:06:15;100110.00;;;12.95;73.88
75852;BME280;64500;52.632;20.656;2022-10-22T19:08:42;100111.86;;;12.97;73.89
75852;BME280;64500;52.632;20.656;2022-10-22T19:11:10;100113.29;;;12.97;74.03
75852;BME280;64500;52.632;20.656;2022-10-22T19:13:38;100117.17;;;12.97;73.87
75852;BME280;64500;52.632;20.656;2022-10-22T19:16:07;100116.02;;;12.96;73.93
75852;BME280;64500;52.632;20.656;2022-10-22T19:18:35;100114.96;;;12.95;73.86
75852;BME280;64500;52.632;20.656;2022-10-22T19:21:04;100116.89;;;12.96;73.90
75852;BME280;64500;52.632;20.656;2022-10-22T19:23:31;100120.63;;;12.95;73.96
75852;BME280;64500;52.632;20.656;2022-10-22T19:26:10;100122.76;;;12.95;73.97
75852;BME280;64500;52.632;20.656;2022-10-22T19:28:39;100126.88;;;12.94;73.98
75852;BME280;64500;52.632;20.656;2022-10-22T19:31:09;100129.23;;;12.93;74.10
75852;BME280;64500;52.632;20.656;2022-10-22T19:33:37;100130.63;;;12.93;74.15
75852;BME280;64500;52.632;20.656;2022-10-22T19:36:09;100131.45;;;12.95;74.20
75852;BME280;64500;52.632;20.656;2022-10-22T19:38:40;100134.89;;;12.98;74.19
75852;BME280;64500;52.632;20.656;2022-10-22T19:41:09;100138.58;;;12.99;74.32
75852;BME280;64500;52.632;20.656;2022-10-22T19:43:38;100141.48;;;12.97;74.16
75852;BME280;64500;52.632;20.656;2022-10-22T19:46:06;100142.98;;;12.95;74.33
75852;BME280;64500;52.632;20.656;2022-10-22T19:48:34;100147.45;;;12.95;74.38
75852;BME280;64500;52.632;20.656;2022-10-22T19:51:04;100149.73;;;12.95;74.35
75852;BME280;64500;52.632;20.656;2022-10-22T19:53:32;100152.31;;;12.97;74.33
75852;BME280;64500;52.632;20.656;2022-10-22T19:56:00;100156.56;;;12.97;74.38
75852;BME280;64500;52.632;20.656;2022-10-22T19:58:27;100156.43;;;12.96;74.46
75852;BME280;64500;52.632;20.656;2022-10-22T20:00:54;100159.80;;;12.96;74.49
75852;BME280;64500;52.632;20.656;2022-10-22T20:03:20;100158.77;;;12.96;74.54
75852;BME280;64500;52.632;20.656;2022-10-22T20:05:51;100161.58;;;12.96;74.55
75852;BME280;64500;52.632;20.656;2022-10-22T20:08:18;100166.36;;;12.96;74.51
75852;BME280;64500;52.632;20.656;2022-10-22T20:10:47;100170.23;;;12.97;74.64
75852;BME280;64500;52.632;20.656;2022-10-22T20:13:14;100174.06;;;12.94;74.64
75852;BME280;64500;52.632;20.656;2022-10-22T20:15:42;100175.58;;;12.92;74.72
75852;BME280;64500;52.632;20.656;2022-10-22T20:18:08;100180.61;;;12.90;74.73
75852;BME280;64500;52.632;20.656;2022-10-22T20:20:39;100186.48;;;12.90;74.76
75852;BME280;64500;52.632;20.656;2022-10-22T20:23:06;100190.36;;;12.90;74.79
75852;BME280;64500;52.632;20.656;2022-10-22T20:25:34;100192.23;;;12.92;74.85
75852;BME280;64500;52.632;20.656;2022-10-22T20:28:01;100194.20;;;12.92;74.87
75852;BME280;64500;52.632;20.656;2022-10-22T20:30:27;100193.85;;;12.92;74.93
75852;BME280;64500;52.632;20.656;2022-10-22T20:32:54;100192.09;;;12.92;74.97
75852;BME280;64500;52.632;20.656;2022-10-22T20:35:21;100189.90;;;12.93;75.07
75852;BME280;64500;52.632;20.656;2022-10-22T20:37:48;100193.44;;;12.93;75.07
75852;BME280;64500;52.632;20.656;2022-10-22T20:40:14;100196.08;;;12.94;75.00
75852;BME280;64500;52.632;20.656;2022-10-22T20:42:41;100200.25;;;12.96;75.09
75852;BME280;64500;52.632;20.656;2022-10-22T20:45:08;100203.21;;;12.98;75.02
75852;BME280;64500;52.632;20.656;2022-10-22T20:47:36;100204.48;;;12.97;75.02
75852;BME280;64500;52.632;20.656;2022-10-22T20:50:03;100206.02;;;12.98;75.17
75852;BME280;64500;52.632;20.656;2022-10-22T20:52:30;100206.54;;;12.99;75.16
75852;BME280;64500;52.632;20.656;2022-10-22T20:54:57;100209.33;;;13.00;75.17
75852;BME280;64500;52.632;20.656;2022-10-22T20:57:23;100210.55;;;13.01;75.15
75852;BME280;64500;52.632;20.656;2022-10-22T20:59:51;100209.97;;;13.02;75.17
75852;BME280;64500;52.632;20.656;2022-10-22T21:02:20;100217.24;;;13.02;75.08
75852;BME280;64500;52.632;20.656;2022-10-22T21:04:46;100214.81;;;13.01;75.24
75852;BME280;64500;52.632;20.656;2022-10-22T21:07:13;100216.98;;;12.99;75.25
75852;BME280;64500;52.632;20.656;2022-10-22T21:09:40;100213.42;;;13.00;75.32
75852;BME280;64500;52.632;20.656;2022-10-22T21:12:06;100211.38;;;13.02;75.29
75852;BME280;64500;52.632;20.656;2022-10-22T21:14:33;100212.70;;;13.05;75.31
75852;BME280;64500;52.632;20.656;2022-10-22T21:17:00;100213.20;;;13.05;75.22
75852;BME280;64500;52.632;20.656;2022-10-22T21:19:27;100210.94;;;13.04;75.20
75852;BME280;64500;52.632;20.656;2022-10-22T21:21:53;100212.54;;;13.04;75.24
75852;BME280;64500;52.632;20.656;2022-10-22T21:24:20;100212.95;;;13.03;75.34
75852;BME280;64500;52.632;20.656;2022-10-22T21:26:50;100215.80;;;13.03;75.37
75852;BME280;64500;52.632;20.656;2022-10-22T21:29:18;100217.91;;;13.03;75.36
75852;BME280;64500;52.632;20.656;2022-10-22T21:31:45;100221.77;;;13.04;75.40
75852;BME280;64500;52.632;20.656;2022-10-22T21:34:12;100219.97;;;13.04;75.39
75852;BME280;64500;52.632;20.656;2022-10-22T21:36:40;100220.59;;;13.02;75.24
75852;BME280;64500;52.632;20.656;2022-10-22T21:39:08;100218.85;;;13.02;75.42
75852;BME280;64500;52.632;20.656;2022-10-22T21:41:36;100222.00;;;13.03;75.43
75852;BME280;64500;52.632;20.656;2022-10-22T21:44:02;100222.32;;;13.04;75.42
75852;BME280;64500;52.632;20.656;2022-10-22T21:46:29;100223.67;;;13.05;75.54
75852;BME280;64500;52.632;20.656;2022-10-22T21:48:58;100223.79;;;13.07;75.44
75852;BME280;64500;52.632;20.656;2022-10-22T21:51:29;100225.65;;;13.10;75.51
75852;BME280;64500;52.632;20.656;2022-10-22T21:53:56;100229.77;;;13.08;75.41
75852;BME280;64500;52.632;20.656;2022-10-22T21:56:26;100232.45;;;13.08;75.35
75852;BME280;64500;52.632;20.656;2022-10-22T21:58:53;100231.58;;;13.08;75.38
75852;BME280;64500;52.632;20.656;2022-10-22T22:01:21;100231.28;;;13.06;75.46
75852;BME280;64500;52.632;20.656;2022-10-22T22:03:48;100230.39;;;13.06;75.45
75852;BME280;64500;52.632;20.656;2022-10-22T22:06:18;100232.39;;;13.05;75.45
75852;BME280;64500;52.632;20.656;2022-10-22T22:08:45;100232.41;;;13.04;75.48
75852;BME280;64500;52.632;20.656;2022-10-22T22:11:14;100235.23;;;13.05;75.48
75852;BME280;64500;52.632;20.656;2022-10-22T22:13:42;100236.21;;;13.06;75.49
75852;BME280;64500;52.632;20.656;2022-10-22T22:16:14;100232.48;;;13.07;75.46
75852;BME280;64500;52.632;20.656;2022-10-22T22:18:42;100237.90;;;13.10;75.46
75852;BME280;64500;52.632;20.656;2022-10-22T22:21:12;100235.64;;;13.08;75.53
75852;BME280;64500;52.632;20.656;2022-10-22T22:23:41;100237.59;;;13.08;75.47
75852;BME280;64500;52.632;20.656;2022-10-22T22:26:08;100248.39;;;13.09;75.61
75852;BME280;64500;52.632;20.656;2022-10-22T22:28:36;100245.65;;;13.12;75.52
75852;BME280;64500;52.632;20.656;2022-10-22T22:31:11;100251.60;;;13.14;75.54
75852;BME280;64500;52.632;20.656;2022-10-22T22:33:38;100252.63;;;13.15;75.49
75852;BME280;64500;52.632;20.656;2022-10-22T22:36:05;100258.90;;;13.13;75.53
75852;BME280;64500;52.632;20.656;2022-10-22T22:38:32;100258.57;;;13.12;75.50
75852;BME280;64500;52.632;20.656;2022-10-22T22:40:59;100257.76;;;13.10;75.34